This is the latest recevied weather packets stored in our database for station/object KB2M. If no packets are shown the sender has not sent any weather packets the latest 10 day(s).
| Time | Temp. | Humidity | Pressure | Rain* | Wind** | Luminosity | Snow |
|---|---|---|---|---|---|---|---|
| 1777224786 | 22.78° C | 81% | 1013.2 hPa | 0.25 mm | - | - | - |
| 1777224186 | 22.22° C | 81% | 1013.5 hPa | 1.78 mm | - | - | - |
| 1777223586 | 21.67° C | 86% | 1013.2 hPa | 3.81 mm | - | - | - |
| 1777222985 | 21.11° C | 89% | 1013.2 hPa | 7.37 mm | - | - | - |
| 1777222385 | 21.11° C | 88% | 1013.2 hPa | 7.37 mm | - | - | - |
| 1777221755 | 20.56° C | 90% | 1012.8 hPa | 7.37 mm | - | - | - |
| 1777221125 | 20° C | 90% | 1013.5 hPa | 7.11 mm | - | - | - |
| 1777220525 | 20° C | 89% | 1013.8 hPa | 5.59 mm | - | - | - |
| 1777219895 | 22.78° C | 85% | 1013.5 hPa | 2.54 mm | - | - | - |
| 1777219265 | 25.56° C | 69% | 1013.2 hPa | 0 mm | - | - | - |
| 1777218665 | 26.67° C | 65% | 1013.2 hPa | 0 mm | - | - | - |
| 1777218065 | 26.11° C | 67% | 1012.8 hPa | 0 mm | - | - | - |
| 1777217435 | 25.56° C | 67% | 1013.2 hPa | 0 mm | - | - | - |
| 1777216835 | 25.56° C | 69% | 1013.2 hPa | 0 mm | - | - | - |
| 1777216235 | 25.56° C | 71% | 1013.2 hPa | 0 mm | - | - | - |
| 1777215605 | 25.56° C | 70% | 1013.2 hPa | 0 mm | - | - | - |
| 1777215005 | 25.56° C | 69% | 1013.2 hPa | 0 mm | - | - | - |
| 1777214405 | 25° C | 72% | 1013.2 hPa | 0 mm | - | - | - |
| 1777213805 | 24.44° C | 73% | 1013.5 hPa | 0 mm | - | - | - |
| 1777213205 | 24.44° C | 74% | 1013.2 hPa | 0 mm | - | - | - |
| 1777212605 | 24.44° C | 74% | 1013.2 hPa | 0 mm | - | - | - |
| 1777212005 | 24.44° C | 75% | 1013.2 hPa | 0 mm | - | - | - |
| 1777211404 | 23.89° C | 77% | 1013.2 hPa | 0 mm | - | - | - |
| 1777210804 | 24.44° C | 76% | 1013.5 hPa | 0 mm | - | - | - |
| 1777210204 | 23.89° C | 79% | 1013.5 hPa | 0 mm | - | - | - |
* Rain latest hour (hover to see other rain measurements)
** Current wind speed in m/s (hover to see current wind gust speed)